Time;durP1;ratioP1;P1;durP2;ratioP2;P2;SDS_P1;SDS_P2;PMS_P1;PMS_P2;Temp;Humidity;BMP_temperature;BMP_pressure;BME280_temperature;BME280_humidity;BME280_pressure;Samples;Min_cycle;Max_cycle;Signal;HPM_P1;HPM_P2
2022/04/19 00:00:37;;;;;;;14.70;5.70;;;;;;;;;;5040606;28;20049;-62
2022/04/19 00:03:05;;;;;;;11.07;7.15;;;;;;;;;;5025463;28;20046;-61
2022/04/19 00:05:32;;;;;;;;;;;;;;;;;;5033364;28;20034;-61
2022/04/19 00:07:59;;;;;;;14.13;7.38;;;;;;;;;;5031759;28;19928;-62
2022/04/19 00:10:28;;;;;;;10.40;6.50;;;;;;;;;;5033102;28;20049;-62
2022/04/19 00:12:54;;;;;;;9.63;6.00;;;;;;;;;;5044108;28;20049;-62
2022/04/19 00:15:21;;;;;;;10.52;6.18;;;;;;;;;;5039398;28;20075;-62
2022/04/19 00:17:48;;;;;;;12.65;6.97;;;;;;;;;;5039652;28;20046;-62
2022/04/19 00:20:15;;;;;;;12.18;7.13;;;;;;;;;;5026133;28;20042;-63
2022/04/19 00:22:41;;;;;;;12.90;6.72;;;;;;;;;;5028372;28;20045;-62
2022/04/19 00:25:08;;;;;;;11.27;7.28;;;;;;;;;;5026076;28;20046;-62
2022/04/19 00:27:34;;;;;;;10.25;6.68;;;;;;;;;;5025952;28;20050;-62
2022/04/19 00:30:00;;;;;;;12.60;6.88;;;;;;;;;;5026176;28;20125;-63
2022/04/19 00:32:27;;;;;;;9.90;6.53;;;;;;;;;;5008279;28;20045;-62
2022/04/19 00:34:53;;;;;;;12.07;7.10;;;;;;;;;;5006860;28;20053;-64
2022/04/19 00:37:19;;;;;;;10.40;7.30;;;;;;;;;;5025177;28;20058;-62
2022/04/19 00:39:46;;;;;;;13.00;7.70;;;;;;;;;;5025472;28;20096;-63
2022/04/19 00:42:12;;;;;;;13.95;7.05;;;;;;;;;;5025499;28;20057;-62
2022/04/19 00:44:39;;;;;;;11.13;7.30;;;;;;;;;;5025799;28;20042;-63
2022/04/19 00:47:09;;;;;;;13.20;8.02;;;;;;;;;;5025934;28;20145;-63
2022/04/19 00:49:39;;;;;;;15.00;7.05;;;;;;;;;;5025326;28;20046;-62
2022/04/19 00:52:06;;;;;;;11.00;7.40;;;;;;;;;;5025587;28;20493;-61
2022/04/19 00:54:32;;;;;;;11.50;7.82;;;;;;;;;;5025182;28;20037;-62
2022/04/19 00:56:58;;;;;;;11.18;7.13;;;;;;;;;;5025603;28;20042;-62
2022/04/19 00:59:25;;;;;;;12.43;7.57;;;;;;;;;;5025523;28;20042;-62
2022/04/19 01:01:51;;;;;;;13.02;8.00;;;;;;;;;;5025564;28;20080;-62
2022/04/19 01:04:18;;;;;;;11.02;7.82;;;;;;;;;;5025367;28;20046;-62
2022/04/19 01:06:44;;;;;;;13.30;7.73;;;;;;;;;;5025172;28;20101;-62
2022/04/19 01:09:11;;;;;;;11.73;7.75;;;;;;;;;;5025097;28;20046;-62
2022/04/19 01:14:22;;;;;;;12.73;7.63;;;;;;;;;;5024942;28;20107;-62
2022/04/19 01:16:48;;;;;;;13.23;8.07;;;;;;;;;;5025285;28;20053;-62
2022/04/19 01:19:15;;;;;;;12.90;7.97;;;;;;;;;;5025234;28;20049;-61
2022/04/19 01:21:54;;;;;;;11.77;7.80;;;;;;;;;;5025208;28;20042;-62
2022/04/19 01:24:20;;;;;;;11.93;7.43;;;;;;;;;;5024272;28;20042;-62
2022/04/19 01:26:48;;;;;;;12.15;8.40;;;;;;;;;;5024940;28;20045;-62
2022/04/19 01:29:15;;;;;;;13.45;7.80;;;;;;;;;;5024922;28;20057;-62
2022/04/19 01:31:41;;;;;;;12.38;7.90;;;;;;;;;;5024525;28;20073;-62
2022/04/19 01:34:08;;;;;;;13.50;8.23;;;;;;;;;;5024433;28;20050;-62
2022/04/19 01:36:35;;;;;;;12.20;7.68;;;;;;;;;;5024468;28;20076;-62
2022/04/19 01:39:03;;;;;;;11.90;7.93;;;;;;;;;;5024607;28;20054;-62
2022/04/19 01:41:29;;;;;;;13.05;7.93;;;;;;;;;;5024356;28;20637;-62
2022/04/19 01:43:55;;;;;;;16.08;8.88;;;;;;;;;;5024615;28;20046;-62
2022/04/19 01:46:23;;;;;;;12.68;8.52;;;;;;;;;;5024601;28;20490;-62
2022/04/19 01:48:50;;;;;;;12.63;7.55;;;;;;;;;;5024685;28;20161;-62
2022/04/19 01:51:16;;;;;;;12.73;7.78;;;;;;;;;;5024356;28;20536;-62
2022/04/19 01:53:43;;;;;;;12.73;7.63;;;;;;;;;;5024300;28;20050;-62
2022/04/19 01:56:09;;;;;;;14.60;8.75;;;;;;;;;;5024441;28;20498;-62
2022/04/19 01:58:35;;;;;;;11.90;7.50;;;;;;;;;;5006419;28;20053;-62
2022/04/19 02:01:01;;;;;;;11.15;8.10;;;;;;;;;;5004840;28;20078;-62
2022/04/19 02:03:27;;;;;;;13.20;7.80;;;;;;;;;;5022615;28;20050;-62
2022/04/19 02:05:53;;;;;;;12.73;8.90;;;;;;;;;;5006418;28;20058;-62
2022/04/19 02:08:19;;;;;;;12.98;7.63;;;;;;;;;;5006921;28;20057;-62
2022/04/19 02:10:46;;;;;;;12.20;7.95;;;;;;;;;;5024579;28;20046;-62
2022/04/19 02:13:13;;;;;;;11.15;7.85;;;;;;;;;;5006772;28;20072;-62
2022/04/19 02:15:39;;;;;;;12.48;7.72;;;;;;;;;;5024153;28;20069;-62
2022/04/19 02:18:05;;;;;;;11.52;7.20;;;;;;;;;;5024472;28;20430;-62
2022/04/19 02:20:32;;;;;;;12.35;7.78;;;;;;;;;;5027484;28;20056;-62
2022/04/19 02:22:58;;;;;;;12.13;8.10;;;;;;;;;;5027773;28;20056;-63
2022/04/19 02:25:24;;;;;;;15.48;8.18;;;;;;;;;;5027909;28;20052;-62
2022/04/19 02:27:52;;;;;;;14.20;9.07;;;;;;;;;;5027729;28;20050;-62
2022/04/19 02:30:18;;;;;;;12.40;8.38;;;;;;;;;;5028070;28;20057;-62
2022/04/19 02:32:45;;;;;;;16.98;8.13;;;;;;;;;;5028020;28;20049;-62
2022/04/19 02:35:11;;;;;;;14.95;7.70;;;;;;;;;;5027907;28;20187;-62
2022/04/19 02:37:38;;;;;;;13.15;7.88;;;;;;;;;;5028052;28;20053;-62
2022/04/19 02:40:05;;;;;;;13.27;8.15;;;;;;;;;;5027403;28;20077;-63
2022/04/19 02:42:31;;;;;;;10.68;7.50;;;;;;;;;;5027637;28;20057;-63
2022/04/19 02:44:57;;;;;;;11.77;7.80;;;;;;;;;;5027634;28;20045;-61
2022/04/19 02:47:23;;;;;;;12.82;7.13;;;;;;;;;;5027711;28;20053;-62
2022/04/19 02:49:49;;;;;;;12.05;7.18;;;;;;;;;;5027230;28;20046;-62
2022/04/19 02:52:17;;;;;;;12.90;7.97;;;;;;;;;;5027801;28;20057;-62
2022/04/19 02:54:43;;;;;;;9.55;7.30;;;;;;;;;;5027470;28;20054;-62
2022/04/19 02:57:09;;;;;;;9.77;7.43;;;;;;;;;;5027524;28;20049;-62
2022/04/19 02:59:35;;;;;;;12.38;7.78;;;;;;;;;;5027321;28;20129;-63
2022/04/19 03:02:01;;;;;;;11.05;6.65;;;;;;;;;;5027364;28;20053;-62
2022/04/19 03:04:28;;;;;;;10.85;7.50;;;;;;;;;;5026921;28;20037;-62
2022/04/19 03:06:54;;;;;;;10.77;6.90;;;;;;;;;;5009792;28;20111;-62
2022/04/19 03:09:20;;;;;;;10.68;7.68;;;;;;;;;;5027179;28;20054;-62
2022/04/19 03:11:46;;;;;;;11.93;7.47;;;;;;;;;;5027376;28;20121;-62
2022/04/19 03:14:12;;;;;;;12.30;7.57;;;;;;;;;;5027110;28;20042;-61
2022/04/19 03:16:38;;;;;;;14.48;8.82;;;;;;;;;;5027101;28;20045;-62
2022/04/19 03:19:04;;;;;;;13.32;8.27;;;;;;;;;;5027156;28;20105;-61
2022/04/19 03:21:30;;;;;;;12.38;7.68;;;;;;;;;;5027148;28;20084;-62
2022/04/19 03:29:25;;;;;;;12.77;7.72;;;;;;;;;;5026686;28;20076;-61
2022/04/19 03:31:51;;;;;;;16.85;7.60;;;;;;;;;;5026839;28;20053;-62
2022/04/19 03:34:18;;;;;;;12.30;7.95;;;;;;;;;;5026352;28;20444;-62
2022/04/19 03:36:45;;;;;;;13.65;8.50;;;;;;;;;;5026650;28;20053;-62
2022/04/19 03:39:11;;;;;;;13.80;7.60;;;;;;;;;;5026579;28;20049;-62
2022/04/19 03:41:40;;;;;;;18.98;8.40;;;;;;;;;;5026783;28;20056;-62
2022/04/19 03:44:07;;;;;;;11.63;6.93;;;;;;;;;;5026384;28;20081;-62
2022/04/19 03:47:06;;;;;;;12.63;7.85;;;;;;;;;;5026796;28;20046;-62
2022/04/19 03:49:19;;;;;;;10.88;7.25;;;;;;;;;;5026466;28;20046;-61
2022/04/19 03:51:45;;;;;;;12.75;8.27;;;;;;;;;;5026486;28;20042;-62
2022/04/19 03:54:14;;;;;;;14.57;8.35;;;;;;;;;;5026031;28;20125;-62
2022/04/19 03:56:40;;;;;;;14.65;8.32;;;;;;;;;;5026388;28;20167;-62
2022/04/19 03:59:06;;;;;;;12.25;7.72;;;;;;;;;;5026613;28;20046;-62
2022/04/19 04:01:32;;;;;;;13.63;7.45;;;;;;;;;;5026386;28;20077;-62
2022/04/19 04:03:58;;;;;;;14.93;8.82;;;;;;;;;;5025511;28;20109;-62
2022/04/19 04:06:25;;;;;;;13.82;8.90;;;;;;;;;;5026236;28;20038;-62
2022/04/19 04:08:51;;;;;;;12.88;8.70;;;;;;;;;;5026146;28;20054;-62
2022/04/19 04:11:17;;;;;;;15.68;7.95;;;;;;;;;;5041640;28;20045;-61
2022/04/19 04:13:43;;;;;;;12.93;8.05;;;;;;;;;;5008083;28;20077;-61
2022/04/19 04:16:10;;;;;;;16.00;8.88;;;;;;;;;;5026125;28;20053;-62
2022/04/19 04:18:39;;;;;;;12.75;9.32;;;;;;;;;;5026126;28;20544;-62
2022/04/19 04:21:05;;;;;;;17.98;10.02;;;;;;;;;;5025931;28;20077;-62
2022/04/19 04:23:33;;;;;;;14.55;9.05;;;;;;;;;;5025419;28;20068;-62
2022/04/19 04:25:59;;;;;;;13.88;9.13;;;;;;;;;;5025570;28;20046;-62
2022/04/19 04:28:26;;;;;;;14.02;8.38;;;;;;;;;;5025893;28;20041;-63
2022/04/19 04:30:52;;;;;;;19.33;9.43;;;;;;;;;;5025644;28;20103;-62
2022/04/19 04:33:18;;;;;;;17.73;8.68;;;;;;;;;;5040528;28;20049;-62
2022/04/19 04:35:44;;;;;;;14.40;8.82;;;;;;;;;;5025601;28;20062;-62
2022/04/19 04:38:10;;;;;;;13.70;9.18;;;;;;;;;;5025600;28;20057;-62
2022/04/19 04:40:36;;;;;;;16.20;10.05;;;;;;;;;;5025548;28;20045;-62
2022/04/19 04:43:04;;;;;;;19.52;9.65;;;;;;;;;;5024792;28;20038;-62
2022/04/19 04:45:30;;;;;;;17.63;8.63;;;;;;;;;;5025524;28;20046;-61
2022/04/19 04:50:40;;;;;;;17.88;9.98;;;;;;;;;;5025228;28;20073;-62
2022/04/19 04:53:06;;;;;;;15.82;8.85;;;;;;;;;;5025125;28;20050;-62
2022/04/19 04:55:32;;;;;;;16.35;9.20;;;;;;;;;;5024874;28;20049;-61
2022/04/19 04:58:01;;;;;;;18.48;9.75;;;;;;;;;;5025412;28;20046;-61
2022/04/19 05:00:27;;;;;;;20.25;9.98;;;;;;;;;;5025395;28;20089;-62
2022/04/19 05:02:53;;;;;;;14.50;8.57;;;;;;;;;;5025056;28;20610;-61
2022/04/19 05:05:20;;;;;;;14.05;8.43;;;;;;;;;;5024875;28;20470;-62
2022/04/19 05:07:46;;;;;;;14.23;9.20;;;;;;;;;;5025102;28;20042;-61
2022/04/19 05:10:12;;;;;;;20.52;10.75;;;;;;;;;;5025062;28;20106;-61
2022/04/19 05:12:38;;;;;;;16.02;9.90;;;;;;;;;;5024984;28;20049;-62
2022/04/19 05:15:05;;;;;;;17.13;9.63;;;;;;;;;;5024765;28;20077;-65
2022/04/19 05:17:31;;;;;;;22.95;9.32;;;;;;;;;;5025269;28;20107;-62
2022/04/19 05:19:57;;;;;;;19.52;8.98;;;;;;;;;;5025120;28;20296;-62
2022/04/19 05:22:23;;;;;;;15.95;9.63;;;;;;;;;;5024974;28;20201;-62
2022/04/19 05:24:50;;;;;;;14.23;8.45;;;;;;;;;;5024658;28;20044;-61
2022/04/19 05:27:16;;;;;;;16.17;9.98;;;;;;;;;;5024868;28;20201;-62
2022/04/19 05:29:42;;;;;;;14.10;8.15;;;;;;;;;;5025084;28;20101;-62
2022/04/19 05:32:08;;;;;;;17.58;9.50;;;;;;;;;;5024726;28;20046;-62
2022/04/19 05:34:34;;;;;;;13.68;7.35;;;;;;;;;;5024535;28;20050;-62
2022/04/19 05:37:00;;;;;;;18.15;9.77;;;;;;;;;;5022870;28;20061;-62
2022/04/19 05:39:27;;;;;;;14.63;8.85;;;;;;;;;;5022501;28;20056;-62
2022/04/19 05:41:53;;;;;;;15.47;8.43;;;;;;;;;;5019213;28;20056;-62
2022/04/19 05:44:21;;;;;;;15.48;8.63;;;;;;;;;;5015957;28;20062;-62
2022/04/19 05:46:47;;;;;;;15.18;8.18;;;;;;;;;;5014234;28;20056;-62
2022/04/19 05:49:13;;;;;;;14.73;8.80;;;;;;;;;;5022713;28;20040;-62
2022/04/19 05:51:42;;;;;;;18.95;9.15;;;;;;;;;;5023417;28;20097;-62
2022/04/19 05:54:08;;;;;;;19.42;9.30;;;;;;;;;;5008949;28;20054;-62
2022/04/19 05:56:34;;;;;;;16.55;9.00;;;;;;;;;;5027703;28;20097;-62
2022/04/19 05:59:00;;;;;;;14.60;7.65;;;;;;;;;;5027838;28;20515;-62
2022/04/19 06:04:51;;;;;;;12.00;8.00;;;;;;;;;;5027307;28;20090;-62
2022/04/19 06:06:57;;;;;;;12.88;6.43;;;;;;;;;;5026403;28;20053;-61
2022/04/19 06:09:23;;;;;;;12.68;7.28;;;;;;;;;;5025714;28;20068;-62
2022/04/19 06:11:49;;;;;;;15.95;8.68;;;;;;;;;;5026438;28;20049;-62
2022/04/19 06:14:15;;;;;;;12.55;7.38;;;;;;;;;;5026751;28;20078;-62
2022/04/19 06:16:41;;;;;;;13.38;7.53;;;;;;;;;;5028047;28;20042;-62
2022/04/19 06:19:09;;;;;;;14.88;8.40;;;;;;;;;;5027611;28;20114;-63
2022/04/19 06:21:35;;;;;;;13.93;7.75;;;;;;;;;;5027580;28;20033;-62
2022/04/19 06:24:04;;;;;;;14.60;8.15;;;;;;;;;;5026473;28;20044;-62
2022/04/19 06:26:30;;;;;;;13.80;7.30;;;;;;;;;;5026702;28;20421;-62
2022/04/19 06:28:56;;;;;;;12.73;6.65;;;;;;;;;;5027353;28;20050;-63
2022/04/19 06:31:22;;;;;;;14.77;7.90;;;;;;;;;;5025329;28;20448;-61
2022/04/19 06:33:48;;;;;;;13.30;7.85;;;;;;;;;;5027584;28;20041;-62
2022/04/19 06:36:14;;;;;;;14.05;8.05;;;;;;;;;;5027687;28;20109;-61
2022/04/19 06:38:40;;;;;;;12.20;7.68;;;;;;;;;;5027572;28;20061;-61
2022/04/19 06:41:10;;;;;;;12.10;6.97;;;;;;;;;;5027816;28;20070;-62
2022/04/19 06:43:37;;;;;;;13.50;6.93;;;;;;;;;;5012497;28;20526;-62
2022/04/19 06:46:03;;;;;;;17.27;7.15;;;;;;;;;;5007692;28;20073;-62
2022/04/19 06:48:29;;;;;;;14.50;7.07;;;;;;;;;;5016266;28;20057;-62
2022/04/19 06:50:55;;;;;;;11.25;6.63;;;;;;;;;;5027668;28;20042;-62
2022/04/19 06:53:22;;;;;;;11.55;6.28;;;;;;;;;;5016504;28;20069;-62
2022/04/19 06:55:48;;;;;;;11.23;5.38;;;;;;;;;;5007346;28;20058;-63
2022/04/19 06:58:14;;;;;;;8.20;4.85;;;;;;;;;;5017106;28;20060;-62
2022/04/19 07:00:40;;;;;;;10.02;6.53;;;;;;;;;;5026924;28;20069;-62
2022/04/19 07:03:06;;;;;;;9.48;5.70;;;;;;;;;;5027281;28;20120;-63
2022/04/19 07:05:32;;;;;;;8.85;6.10;;;;;;;;;;5026506;28;20124;-62
2022/04/19 07:07:59;;;;;;;11.50;5.85;;;;;;;;;;5027383;28;20046;-62
2022/04/19 07:10:25;;;;;;;11.50;5.80;;;;;;;;;;5026595;28;20049;-63
2022/04/19 07:12:51;;;;;;;9.63;4.88;;;;;;;;;;5027116;28;20172;-62
2022/04/19 07:15:17;;;;;;;10.43;6.05;;;;;;;;;;5026547;28;20130;-62
2022/04/19 07:17:43;;;;;;;12.38;4.97;;;;;;;;;;5026746;28;20096;-62
2022/04/19 07:28:25;;;;;;;14.65;6.53;;;;;;;;;;5016055;28;20058;-62
2022/04/19 07:30:51;;;;;;;11.48;6.13;;;;;;;;;;5022567;28;20050;-62
2022/04/19 07:33:17;;;;;;;9.27;5.45;;;;;;;;;;5026136;28;20034;-62
2022/04/19 07:35:44;;;;;;;12.57;5.40;;;;;;;;;;5019727;28;20259;-62
2022/04/19 07:38:10;;;;;;;7.47;5.20;;;;;;;;;;5026463;28;20092;-63
2022/04/19 07:40:37;;;;;;;9.70;4.43;;;;;;;;;;5026548;28;20416;-63
2022/04/19 07:43:03;;;;;;;9.88;4.97;;;;;;;;;;5024830;28;20092;-62
2022/04/19 07:45:30;;;;;;;9.82;5.22;;;;;;;;;;5026400;28;20053;-63
2022/04/19 07:47:56;;;;;;;10.35;5.57;;;;;;;;;;5025944;28;20045;-63
2022/04/19 07:50:22;;;;;;;5.03;3.28;;;;;;;;;;5026000;28;20038;-62
2022/04/19 07:52:48;;;;;;;9.52;4.97;;;;;;;;;;5025535;28;20068;-63
2022/04/19 07:55:14;;;;;;;9.20;4.00;;;;;;;;;;5025662;28;20042;-62
2022/04/19 07:57:40;;;;;;;6.97;4.53;;;;;;;;;;5025218;28;20410;-62
2022/04/19 08:00:07;;;;;;;5.63;3.45;;;;;;;;;;5025905;28;20058;-63
2022/04/19 08:02:33;;;;;;;7.63;3.97;;;;;;;;;;5025985;28;20042;-63
2022/04/19 08:04:59;;;;;;;6.97;3.60;;;;;;;;;;5008453;28;20050;-63
2022/04/19 08:07:25;;;;;;;7.75;4.00;;;;;;;;;;5025680;28;20069;-62
2022/04/19 08:09:51;;;;;;;5.93;2.72;;;;;;;;;;5026082;28;20050;-62
2022/04/19 08:12:17;;;;;;;5.45;3.75;;;;;;;;;;5026318;28;20125;-63
2022/04/19 08:14:44;;;;;;;6.53;3.58;;;;;;;;;;5025822;28;20050;-63
2022/04/19 08:17:10;;;;;;;5.13;3.45;;;;;;;;;;5025339;28;20041;-62
2022/04/19 08:19:36;;;;;;;4.07;2.75;;;;;;;;;;5008646;28;20052;-62
2022/04/19 08:22:02;;;;;;;3.95;3.13;;;;;;;;;;5025894;28;20049;-62
2022/04/19 08:24:28;;;;;;;5.00;3.22;;;;;;;;;;5025762;28;20046;-62
2022/04/19 08:26:54;;;;;;;5.43;2.92;;;;;;;;;;5025504;28;20095;-62
2022/04/19 08:29:20;;;;;;;3.55;2.75;;;;;;;;;;5025669;28;20058;-62
2022/04/19 08:31:47;;;;;;;2.65;1.80;;;;;;;;;;5025691;28;20514;-62
2022/04/19 08:34:13;;;;;;;3.13;2.00;;;;;;;;;;5025151;28;20099;-62
2022/04/19 08:36:39;;;;;;;8.27;2.30;;;;;;;;;;5021256;28;20054;-63
2022/04/19 08:39:05;;;;;;;4.25;2.33;;;;;;;;;;5025587;28;20053;-63
2022/04/19 08:41:31;;;;;;;2.08;1.55;;;;;;;;;;5023447;28;20037;-61
2022/04/19 08:43:58;;;;;;;3.97;2.03;;;;;;;;;;5022815;28;20127;-62
2022/04/19 08:46:26;;;;;;;3.88;1.60;;;;;;;;;;5023936;28;20053;-63
2022/04/19 08:48:53;;;;;;;;;;;;;;;;;;5015159;28;20076;-61
2022/04/19 08:51:21;;;;;;;1.45;1.10;;;;;;;;;;5020125;28;19921;-63
2022/04/19 08:59:26;;;;;;;2.78;1.35;;;;;;;;;;5021932;28;20046;-61
2022/04/19 09:01:53;;;;;;;1.92;1.40;;;;;;;;;;5022654;28;20041;-62
2022/04/19 09:04:22;;;;;;;1.38;1.10;;;;;;;;;;5022194;28;20045;-62
2022/04/19 09:06:58;;;;;;;5.45;2.08;;;;;;;;;;5022663;28;20065;-63
2022/04/19 09:09:25;;;;;;;5.97;1.52;;;;;;;;;;5022909;28;20072;-62
2022/04/19 09:11:53;;;;;;;3.88;1.52;;;;;;;;;;5024198;28;20116;-63
2022/04/19 09:14:19;;;;;;;3.58;1.58;;;;;;;;;;5029885;28;20045;-63
2022/04/19 09:16:46;;;;;;;2.60;1.52;;;;;;;;;;5021168;28;20050;-62
2022/04/19 09:19:27;;;;;;;4.53;2.22;;;;;;;;;;5019047;28;20046;-62
2022/04/19 09:21:53;;;;;;;4.75;1.83;;;;;;;;;;5015417;28;20038;-61
2022/04/19 09:24:20;;;;;;;8.20;2.00;;;;;;;;;;5021183;28;20045;-62
2022/04/19 09:26:48;;;;;;;3.15;1.80;;;;;;;;;;5020809;28;20073;-62
2022/04/19 09:29:18;;;;;;;3.00;2.03;;;;;;;;;;5020829;28;20051;-62
2022/04/19 09:31:45;;;;;;;2.92;2.05;;;;;;;;;;5022764;28;20046;-63
2022/04/19 09:34:11;;;;;;;3.42;2.00;;;;;;;;;;4999365;28;20074;-63
2022/04/19 09:36:37;;;;;;;5.05;2.67;;;;;;;;;;5021830;28;20085;-62
2022/04/19 09:39:23;;;;;;;3.00;1.92;;;;;;;;;;5021754;28;20162;-62
2022/04/19 09:42:00;;;;;;;4.45;1.80;;;;;;;;;;5019769;28;20046;-62
2022/04/19 09:44:27;;;;;;;2.65;1.95;;;;;;;;;;5002828;28;20046;-62
2022/04/19 09:47:09;;;;;;;3.58;2.15;;;;;;;;;;5018793;28;20545;-63
2022/04/19 09:49:49;;;;;;;2.50;1.85;;;;;;;;;;5022269;28;20145;-62
2022/04/19 09:52:38;;;;;;;3.75;2.20;;;;;;;;;;5016434;28;20095;-62
2022/04/19 09:55:04;;;;;;;;;;;;;;;;;;5018639;28;20050;-61
2022/04/19 09:57:34;;;;;;;3.35;2.85;;;;;;;;;;5021763;28;20561;-63
2022/04/19 10:00:07;;;;;;;5.75;2.45;;;;;;;;;;5022716;28;20077;-62
2022/04/19 10:08:20;;;;;;;5.00;2.50;;;;;;;;;;5020088;28;20110;-63
2022/04/19 10:10:50;;;;;;;3.33;2.30;;;;;;;;;;5020193;28;20389;-62
2022/04/19 10:13:23;;;;;;;4.15;2.22;;;;;;;;;;5030835;28;20081;-63
2022/04/19 10:15:49;;;;;;;5.93;2.53;;;;;;;;;;5020041;28;20050;-62
2022/04/19 10:18:16;;;;;;;4.65;2.20;;;;;;;;;;5021256;28;20049;-63
2022/04/19 10:20:47;;;;;;;3.20;2.10;;;;;;;;;;5020562;28;20129;-62
2022/04/19 10:23:15;;;;;;;5.90;2.17;;;;;;;;;;5020863;28;20038;-62
2022/04/19 10:25:49;;;;;;;3.22;2.40;;;;;;;;;;5022272;28;20061;-62
2022/04/19 10:28:25;;;;;;;3.53;2.25;;;;;;;;;;5005036;28;20060;-62
2022/04/19 10:30:53;;;;;;;3.47;2.22;;;;;;;;;;5020676;28;20520;-62
2022/04/19 10:33:38;;;;;;;3.25;2.42;;;;;;;;;;5020527;28;20049;-62
2022/04/19 10:36:17;;;;;;;3.58;2.33;;;;;;;;;;5021186;28;20514;-62
2022/04/19 10:38:44;;;;;;;4.65;2.45;;;;;;;;;;5020315;28;20129;-62
2022/04/19 10:41:10;;;;;;;3.60;1.90;;;;;;;;;;5024174;28;20088;-63
2022/04/19 10:43:36;;;;;;;5.25;2.30;;;;;;;;;;5025425;28;20098;-63
2022/04/19 10:46:22;;;;;;;3.53;2.60;;;;;;;;;;5025513;28;20483;-62
2022/04/19 10:49:07;;;;;;;3.17;1.75;;;;;;;;;;5023950;28;20065;-62
2022/04/19 10:51:33;;;;;;;2.65;1.80;;;;;;;;;;5006984;28;20066;-63
2022/04/19 10:53:59;;;;;;;8.02;2.53;;;;;;;;;;5023174;28;20051;-62
2022/04/19 10:56:25;;;;;;;2.78;1.88;;;;;;;;;;5024670;28;20068;-62
2022/04/19 10:58:52;;;;;;;2.38;1.90;;;;;;;;;;5025417;28;20121;-62
2022/04/19 11:01:31;;;;;;;3.42;2.42;;;;;;;;;;5027445;28;20501;-62
2022/04/19 11:03:58;;;;;;;2.70;2.20;;;;;;;;;;5026124;28;20054;-62
2022/04/19 11:06:31;;;;;;;4.05;2.28;;;;;;;;;;5023879;28;20081;-62
2022/04/19 11:09:16;;;;;;;4.22;2.47;;;;;;;;;;5020108;28;20053;-62
2022/04/19 11:11:46;;;;;;;3.85;2.03;;;;;;;;;;5017297;28;20054;-62
2022/04/19 11:14:20;;;;;;;3.38;2.08;;;;;;;;;;5020761;28;20054;-62
2022/04/19 11:16:50;;;;;;;3.65;2.47;;;;;;;;;;5022821;28;20106;-63
2022/04/19 11:19:21;;;;;;;2.42;1.70;;;;;;;;;;5020662;28;20452;-62
2022/04/19 11:21:47;;;;;;;4.47;2.63;;;;;;;;;;5019666;28;20125;-64
2022/04/19 11:24:13;;;;;;;3.17;2.30;;;;;;;;;;5013752;28;20510;-61
2022/04/19 11:26:42;;;;;;;4.43;2.58;;;;;;;;;;5014793;28;20086;-61
2022/04/19 11:29:09;;;;;;;3.53;2.30;;;;;;;;;;5020846;28;20038;-62
2022/04/19 11:31:55;;;;;;;3.10;2.08;;;;;;;;;;5021541;28;20061;-61
2022/04/19 11:34:21;;;;;;;4.68;2.38;;;;;;;;;;5012916;28;20142;-61
2022/04/19 11:36:47;;;;;;;3.75;2.95;;;;;;;;;;5018308;28;20141;-61
2022/04/19 11:46:44;;;;;;;4.05;3.17;;;;;;;;;;5013541;28;20493;-61
2022/04/19 11:47:56;;;;;;;2.67;2.17;;;;;;;;;;4928665;29;20092;-70
2022/04/19 11:50:32;;;;;;;2.58;2.28;;;;;;;;;;4925389;29;20149;-62
2022/04/19 11:52:59;;;;;;;5.47;3.40;;;;;;;;;;4924543;29;20092;-61
2022/04/19 11:55:27;;;;;;;3.53;2.83;;;;;;;;;;4925262;29;20052;-61
2022/04/19 11:58:05;;;;;;;3.22;2.40;;;;;;;;;;4925434;29;20130;-61
2022/04/19 12:00:32;;;;;;;3.63;2.20;;;;;;;;;;4922889;29;20056;-61
2022/04/19 12:02:58;;;;;;;2.47;1.58;;;;;;;;;;4925403;29;20135;-61
2022/04/19 12:05:25;;;;;;;2.25;1.85;;;;;;;;;;4924684;29;20052;-61
2022/04/19 12:07:56;;;;;;;3.70;2.05;;;;;;;;;;4925378;29;20048;-61
2022/04/19 12:10:23;;;;;;;2.70;2.25;;;;;;;;;;4923230;29;20496;-61
2022/04/19 12:12:52;;;;;;;4.30;2.03;;;;;;;;;;4925301;29;20052;-62
2022/04/19 12:15:38;;;;;;;2.80;2.33;;;;;;;;;;4927892;29;20051;-61
2022/04/19 12:18:04;;;;;;;2.00;1.77;;;;;;;;;;4930263;28;20056;-61
2022/04/19 12:20:42;;;;;;;3.42;2.08;;;;;;;;;;5016305;28;20118;-61
2022/04/19 12:23:16;;;;;;;3.85;1.98;;;;;;;;;;5018860;28;20056;-61
2022/04/19 12:25:42;;;;;;;2.85;2.30;;;;;;;;;;5020780;28;20131;-58
2022/04/19 12:28:11;;;;;;;3.67;1.73;;;;;;;;;;5024789;28;20041;-60
2022/04/19 12:30:47;;;;;;;2.00;1.80;;;;;;;;;;5019956;28;20126;-59
2022/04/19 12:33:16;;;;;;;3.67;1.92;;;;;;;;;;5020449;28;20046;-59
2022/04/19 12:35:42;;;;;;;2.35;1.70;;;;;;;;;;5022435;28;20088;-61
2022/04/19 12:38:18;;;;;;;2.45;1.65;;;;;;;;;;5021121;28;20081;-59
2022/04/19 12:40:48;;;;;;;2.97;1.98;;;;;;;;;;5003978;28;20049;-59
2022/04/19 12:43:15;;;;;;;4.05;1.50;;;;;;;;;;5024300;28;20380;-59
2022/04/19 12:45:42;;;;;;;3.40;1.92;;;;;;;;;;5021986;28;20050;-60
2022/04/19 12:48:17;;;;;;;1.57;1.27;;;;;;;;;;5022470;28;20049;-59
2022/04/19 12:50:43;;;;;;;3.00;1.70;;;;;;;;;;5023735;28;20817;-59
2022/04/19 12:53:25;;;;;;;2.13;1.92;;;;;;;;;;5009553;28;20042;-59
2022/04/19 12:55:51;;;;;;;3.00;1.90;;;;;;;;;;5018936;28;20060;-59
2022/04/19 12:58:17;;;;;;;2.08;1.40;;;;;;;;;;5025315;28;20041;-59
2022/04/19 13:00:43;;;;;;;1.70;1.40;;;;;;;;;;5022622;28;20064;-59
2022/04/19 13:03:10;;;;;;;3.92;2.22;;;;;;;;;;5022029;28;20453;-59
2022/04/19 13:13:50;;;;;;;5.60;2.47;;;;;;;;;;5019496;28;20589;-58
2022/04/19 13:16:17;;;;;;;2.65;1.80;;;;;;;;;;5023955;28;20103;-59
2022/04/19 13:18:43;;;;;;;2.83;2.03;;;;;;;;;;5022713;28;20052;-59
2022/04/19 13:21:09;;;;;;;2.28;1.88;;;;;;;;;;5021043;28;20091;-59
2022/04/19 13:23:35;;;;;;;4.10;1.80;;;;;;;;;;5020915;28;20034;-59
2022/04/19 13:26:01;;;;;;;2.65;1.73;;;;;;;;;;5028285;28;20533;-59
2022/04/19 13:28:27;;;;;;;3.10;2.15;;;;;;;;;;5028666;28;20041;-59
2022/04/19 13:30:54;;;;;;;5.70;1.77;;;;;;;;;;5018455;28;20056;-62
2022/04/19 13:33:20;;;;;;;3.65;2.35;;;;;;;;;;5007334;28;20053;-59
2022/04/19 13:35:46;;;;;;;2.88;2.03;;;;;;;;;;5023317;28;20069;-59
2022/04/19 13:38:24;;;;;;;2.83;2.25;;;;;;;;;;5023786;28;20056;-59
2022/04/19 13:40:51;;;;;;;3.08;2.40;;;;;;;;;;5005704;28;20073;-59
2022/04/19 13:43:17;;;;;;;3.58;2.60;;;;;;;;;;5004402;28;20048;-59
2022/04/19 13:45:44;;;;;;;2.65;2.35;;;;;;;;;;5027085;28;20042;-59
2022/04/19 13:48:10;;;;;;;6.07;2.60;;;;;;;;;;5023786;28;20049;-60
2022/04/19 13:50:36;;;;;;;5.53;2.60;;;;;;;;;;5022559;28;20037;-59
2022/04/19 13:53:02;;;;;;;3.25;2.10;;;;;;;;;;5023030;28;20058;-59
2022/04/19 13:55:29;;;;;;;4.85;2.75;;;;;;;;;;5021925;28;20072;-59
2022/04/19 13:57:55;;;;;;;5.30;2.70;;;;;;;;;;5026427;28;20072;-59
2022/04/19 14:00:23;;;;;;;3.87;2.97;;;;;;;;;;5021362;28;20509;-59
2022/04/19 14:02:49;;;;;;;5.68;2.97;;;;;;;;;;5022438;28;20281;-59
2022/04/19 14:05:16;;;;;;;3.78;2.50;;;;;;;;;;5019132;28;20042;-58
2022/04/19 14:07:42;;;;;;;3.72;2.60;;;;;;;;;;5023775;28;20565;-59
2022/04/19 14:10:09;;;;;;;2.80;2.03;;;;;;;;;;5022447;28;20128;-59
2022/04/19 14:12:35;;;;;;;2.95;2.55;;;;;;;;;;5026606;28;20034;-59
2022/04/19 14:15:01;;;;;;;3.25;2.10;;;;;;;;;;5023518;28;20061;-59
2022/04/19 14:17:28;;;;;;;4.00;2.42;;;;;;;;;;5029619;28;20066;-59
2022/04/19 14:19:56;;;;;;;5.07;2.30;;;;;;;;;;5009216;28;20050;-60
2022/04/19 14:22:23;;;;;;;4.10;2.55;;;;;;;;;;5027600;28;20046;-59
2022/04/19 14:24:49;;;;;;;4.00;2.40;;;;;;;;;;5022472;28;20034;-58
2022/04/19 14:27:15;;;;;;;2.20;1.80;;;;;;;;;;5025858;28;20041;-59
2022/04/19 14:35:11;;;;;;;5.45;3.00;;;;;;;;;;5025692;28;20057;-59
2022/04/19 14:37:37;;;;;;;3.67;2.53;;;;;;;;;;5025793;28;20057;-59
2022/04/19 14:40:04;;;;;;;3.03;2.45;;;;;;;;;;5023508;28;20054;-59
2022/04/19 14:42:30;;;;;;;;;;;;;;;;;;5025898;28;20042;-58
2022/04/19 14:44:56;;;;;;;3.60;2.42;;;;;;;;;;5027085;28;19950;-59
2022/04/19 14:47:22;;;;;;;6.45;2.47;;;;;;;;;;5027168;28;20046;-58
2022/04/19 14:49:48;;;;;;;4.10;2.95;;;;;;;;;;5024626;28;20425;-59
2022/04/19 14:52:16;;;;;;;3.05;1.92;;;;;;;;;;5027035;28;20158;-59
2022/04/19 14:54:42;;;;;;;4.07;2.85;;;;;;;;;;5022736;28;20113;-58
2022/04/19 14:57:08;;;;;;;4.47;2.70;;;;;;;;;;5025967;28;20040;-59
2022/04/19 14:59:34;;;;;;;4.82;3.10;;;;;;;;;;5023734;28;20046;-59
2022/04/19 15:02:00;;;;;;;2.95;2.05;;;;;;;;;;5013108;28;20054;-58
2022/04/19 15:04:27;;;;;;;6.88;2.42;;;;;;;;;;5026863;28;20060;-60
2022/04/19 15:06:53;;;;;;;3.03;2.63;;;;;;;;;;5024799;28;20033;-59
2022/04/19 15:09:19;;;;;;;3.90;2.70;;;;;;;;;;5025028;28;20305;-59
2022/04/19 15:11:46;;;;;;;5.05;2.45;;;;;;;;;;5027941;28;20042;-58
2022/04/19 15:14:12;;;;;;;3.13;2.20;;;;;;;;;;5020828;28;20085;-58
2022/04/19 15:16:38;;;;;;;4.47;3.00;;;;;;;;;;5009841;28;20576;-59
2022/04/19 15:19:04;;;;;;;6.53;3.47;;;;;;;;;;5026036;28;20045;-58
2022/04/19 15:21:31;;;;;;;4.57;2.87;;;;;;;;;;5024425;28;20041;-59
2022/04/19 15:23:57;;;;;;;4.57;3.40;;;;;;;;;;5025150;28;20073;-59
2022/04/19 15:26:25;;;;;;;6.43;4.40;;;;;;;;;;5022742;28;20102;-59
2022/04/19 15:28:52;;;;;;;9.18;5.38;;;;;;;;;;5024480;28;20046;-59
2022/04/19 15:31:18;;;;;;;10.52;6.07;;;;;;;;;;5025898;28;20046;-60
2022/04/19 15:33:47;;;;;;;7.78;4.90;;;;;;;;;;5025121;28;20038;-60